Time;durP1;ratioP1;P1;durP2;ratioP2;P2;SDS_P1;SDS_P2;PMS_P1;PMS_P2;Temp;Humidity;BMP_temperature;BMP_pressure;BME280_temperature;BME280_humidity;BME280_pressure;Samples;Min_cycle;Max_cycle;Signal;HPM_P1;HPM_P2
2021/07/03 08:27:49;;;;;;;12.20;5.65;;;;;;;;;;5075075;27;20519;-61
2021/07/03 09:27:39;;;;;;;6.85;4.50;;;;;;;;;;5057172;28;20588;-61
2021/07/03 09:30:05;;;;;;;5.80;4.63;;;;;;;;;;5057518;28;20531;-59
2021/07/03 09:32:32;;;;;;;7.63;4.82;;;;;;;;;;5053196;28;20103;-60
2021/07/03 09:35:05;;;;;;;5.38;4.63;;;;;;;;;;5061170;28;20243;-60
2021/07/03 09:37:32;;;;;;;4.38;3.97;;;;;;;;;;5056859;28;20116;-59
2021/07/03 09:40:08;;;;;;;9.07;4.07;;;;;;;;;;5052838;28;20098;-60
2021/07/03 09:42:35;;;;;;;5.80;4.30;;;;;;;;;;5050676;28;20045;-59
2021/07/03 09:45:04;;;;;;;6.57;4.30;;;;;;;;;;5059194;28;20052;-59
2021/07/03 09:47:31;;;;;;;6.65;4.07;;;;;;;;;;5054003;28;20065;-60
2021/07/03 09:50:21;;;;;;;11.73;4.60;;;;;;;;;;5055330;28;20064;-60
2021/07/03 09:52:48;;;;;;;8.48;4.32;;;;;;;;;;5057088;28;20068;-60
2021/07/03 09:55:18;;;;;;;7.45;4.50;;;;;;;;;;5051500;28;20393;-59
2021/07/03 09:57:45;;;;;;;9.57;4.32;;;;;;;;;;5053100;28;20130;-59
2021/07/03 10:00:12;;;;;;;9.48;5.00;;;;;;;;;;5056428;28;20052;-60
2021/07/03 10:02:43;;;;;;;5.85;3.90;;;;;;;;;;5052790;28;20091;-59
2021/07/03 10:05:10;;;;;;;7.03;4.13;;;;;;;;;;5055396;28;20496;-60
2021/07/03 10:07:38;;;;;;;11.60;4.40;;;;;;;;;;5051535;28;20103;-60
2021/07/03 10:10:08;;;;;;;7.82;3.72;;;;;;;;;;5055809;28;20040;-59
2021/07/03 10:12:42;;;;;;;6.57;4.35;;;;;;;;;;5056756;28;20619;-60
2021/07/03 10:15:25;;;;;;;4.75;4.20;;;;;;;;;;5050241;28;20184;-60
2021/07/03 10:17:51;;;;;;;8.50;4.10;;;;;;;;;;5053516;28;20042;-59
2021/07/03 10:20:18;;;;;;;8.85;4.07;;;;;;;;;;5054277;28;21931;-60
2021/07/03 10:22:51;;;;;;;7.20;4.32;;;;;;;;;;5048245;28;20065;-60
2021/07/03 10:25:19;;;;;;;4.68;3.90;;;;;;;;;;5052040;28;20159;-60
2021/07/03 10:27:45;;;;;;;;;;;;;;;;;;5050204;28;20671;-60
2021/07/03 10:30:21;;;;;;;6.47;4.03;;;;;;;;;;5050141;28;19974;-60
2021/07/03 10:32:53;;;;;;;8.20;3.90;;;;;;;;;;5056604;28;20049;-60
2021/07/03 10:35:20;;;;;;;5.70;3.40;;;;;;;;;;5056733;28;21337;-59
2021/07/03 10:37:46;;;;;;;6.13;4.05;;;;;;;;;;5042375;28;20041;-59
2021/07/03 10:40:16;;;;;;;4.95;3.28;;;;;;;;;;5032832;28;20069;-59
2021/07/03 10:42:43;;;;;;;5.50;3.53;;;;;;;;;;5042629;28;20485;-60
2021/07/03 10:45:14;;;;;;;6.53;3.80;;;;;;;;;;5036255;28;20045;-60
2021/07/03 10:47:42;;;;;;;5.00;3.85;;;;;;;;;;5035919;28;20077;-60
2021/07/03 10:50:18;;;;;;;6.40;3.80;;;;;;;;;;5044685;28;20548;-60
2021/07/03 10:52:45;;;;;;;6.10;3.38;;;;;;;;;;5035887;28;20107;-59
2021/07/03 10:55:11;;;;;;;5.63;3.33;;;;;;;;;;5038431;28;20043;-60
2021/07/03 10:57:42;;;;;;;6.05;3.67;;;;;;;;;;5033587;28;20077;-59
2021/07/03 11:00:11;;;;;;;7.20;3.00;;;;;;;;;;5034204;28;20359;-59
2021/07/03 11:02:38;;;;;;;5.85;3.00;;;;;;;;;;5033417;28;20544;-59
2021/07/03 11:05:11;;;;;;;4.45;3.20;;;;;;;;;;5038585;28;20076;-59
2021/07/03 11:28:38;;;;;;;5.68;2.90;;;;;;;;;;5048312;28;20930;-59
2021/07/03 11:31:06;;;;;;;4.75;3.20;;;;;;;;;;5050305;28;20064;-59
2021/07/03 11:33:40;;;;;;;4.40;3.15;;;;;;;;;;5048241;28;20045;-59
2021/07/03 11:36:08;;;;;;;6.22;3.28;;;;;;;;;;5042074;28;20041;-60
2021/07/03 11:38:34;;;;;;;4.88;2.88;;;;;;;;;;5043722;28;20076;-59
2021/07/03 11:41:02;;;;;;;6.28;2.67;;;;;;;;;;5044895;28;20140;-59
2021/07/03 11:43:30;;;;;;;3.42;2.90;;;;;;;;;;5042310;28;20405;-60
2021/07/03 11:45:57;;;;;;;7.38;2.80;;;;;;;;;;5044875;28;20091;-59
2021/07/03 11:48:24;;;;;;;3.08;2.78;;;;;;;;;;5045667;28;20633;-59
2021/07/03 11:50:53;;;;;;;2.90;2.60;;;;;;;;;;5046852;28;20139;-59
2021/07/03 11:53:20;;;;;;;5.40;2.70;;;;;;;;;;5044257;28;20049;-59
2021/07/03 11:55:49;;;;;;;4.25;2.80;;;;;;;;;;5052789;28;20074;-60
2021/07/03 11:58:21;;;;;;;3.15;2.60;;;;;;;;;;5046639;28;20485;-59
2021/07/03 12:00:51;;;;;;;8.10;2.78;;;;;;;;;;5044795;28;20053;-59
2021/07/03 12:03:22;;;;;;;3.70;2.67;;;;;;;;;;5044615;28;20069;-59
2021/07/03 12:05:49;;;;;;;3.72;2.85;;;;;;;;;;5041382;28;20076;-59
2021/07/03 12:08:16;;;;;;;4.82;3.00;;;;;;;;;;5045737;28;20065;-59
2021/07/03 12:10:50;;;;;;;3.72;2.78;;;;;;;;;;5046798;28;20427;-59
2021/07/03 12:28:56;;;;;;;4.32;2.90;;;;;;;;;;5099343;27;20514;-60
2021/07/03 12:31:27;;;;;;;5.80;2.97;;;;;;;;;;5069642;28;20179;-61
2021/07/03 12:34:05;;;;;;;5.68;3.25;;;;;;;;;;5057112;28;20645;-61
2021/07/03 12:36:33;;;;;;;3.25;2.85;;;;;;;;;;5069235;28;20060;-58
2021/07/03 13:28:47;;;;;;;3.67;3.28;;;;;;;;;;5109127;27;20892;-61
2021/07/03 13:31:14;;;;;;;4.75;3.85;;;;;;;;;;5076473;28;20044;-59
2021/07/03 13:33:41;;;;;;;10.05;3.88;;;;;;;;;;5080653;28;20560;-59
2021/07/03 13:36:07;;;;;;;5.57;3.25;;;;;;;;;;5078349;28;20045;-59
2021/07/03 13:38:34;;;;;;;6.40;3.60;;;;;;;;;;5069747;28;20050;-59
2021/07/03 13:41:01;;;;;;;3.78;3.38;;;;;;;;;;5079104;28;20047;-59
2021/07/03 13:43:28;;;;;;;4.65;3.60;;;;;;;;;;5078475;28;20044;-59
2021/07/03 13:45:55;;;;;;;6.88;3.75;;;;;;;;;;5081177;28;20064;-59
2021/07/03 13:48:22;;;;;;;5.28;3.42;;;;;;;;;;5078599;28;20541;-59
2021/07/03 13:50:49;;;;;;;6.40;4.07;;;;;;;;;;5077353;28;21388;-59
2021/07/03 13:53:16;;;;;;;6.07;3.75;;;;;;;;;;5074578;28;20036;-59
2021/07/03 13:55:44;;;;;;;6.80;3.90;;;;;;;;;;5075302;28;20038;-59
2021/07/03 13:58:11;;;;;;;4.75;3.90;;;;;;;;;;5109982;27;20040;-59
2021/07/03 14:00:37;;;;;;;;;;;;;;;;;;5080140;28;20048;-59
2021/07/03 14:03:07;;;;;;;5.20;3.88;;;;;;;;;;5080341;28;19951;-59
2021/07/03 14:05:34;;;;;;;5.65;4.03;;;;;;;;;;5078853;28;20048;-59
2021/07/03 14:08:01;;;;;;;5.72;3.78;;;;;;;;;;5077312;28;20717;-59
2021/07/03 14:10:28;;;;;;;9.43;3.75;;;;;;;;;;5080853;28;20044;-59
2021/07/03 14:12:55;;;;;;;7.53;4.07;;;;;;;;;;5078080;28;20044;-59
2021/07/03 14:15:28;;;;;;;5.80;3.85;;;;;;;;;;5081210;28;20053;-59
2021/07/03 15:29:57;;;;;;;5.30;4.22;;;;;;;;;;5099007;27;20518;-60
2021/07/03 15:32:24;;;;;;;7.15;4.40;;;;;;;;;;5080707;28;20537;-61
2021/07/03 15:34:51;;;;;;;6.80;3.97;;;;;;;;;;5076732;28;20063;-61
2021/07/03 15:37:18;;;;;;;5.63;4.00;;;;;;;;;;5076990;28;20098;-61
2021/07/03 15:39:45;;;;;;;5.97;4.15;;;;;;;;;;5075967;28;20286;-61
2021/07/03 15:42:13;;;;;;;6.55;4.15;;;;;;;;;;5074639;28;20068;-61
2021/07/03 15:44:40;;;;;;;7.88;4.30;;;;;;;;;;5077204;28;20398;-61
2021/07/03 15:47:06;;;;;;;5.72;4.60;;;;;;;;;;5071770;28;20089;-61
2021/07/03 15:49:34;;;;;;;4.82;4.32;;;;;;;;;;5077394;28;20064;-61
2021/07/03 15:52:01;;;;;;;5.70;4.30;;;;;;;;;;5073733;28;20047;-61
2021/07/03 15:54:28;;;;;;;7.43;4.20;;;;;;;;;;5077047;28;20047;-61
2021/07/03 15:56:54;;;;;;;5.15;3.63;;;;;;;;;;5075754;28;20040;-59
2021/07/03 15:59:21;;;;;;;7.35;4.00;;;;;;;;;;5076593;28;20389;-59
2021/07/03 16:01:48;;;;;;;7.35;3.55;;;;;;;;;;5074457;28;20049;-59
2021/07/03 16:04:14;;;;;;;6.97;4.30;;;;;;;;;;5076216;28;20044;-58
2021/07/03 16:06:41;;;;;;;9.90;4.05;;;;;;;;;;5072746;28;20036;-59
2021/07/03 16:09:07;;;;;;;5.93;3.67;;;;;;;;;;5067990;28;20044;-59
2021/07/03 16:11:35;;;;;;;4.93;3.80;;;;;;;;;;5070124;28;20094;-59
2021/07/03 16:14:02;;;;;;;5.00;3.97;;;;;;;;;;5070769;28;20036;-59
2021/07/03 16:16:29;;;;;;;5.10;4.10;;;;;;;;;;5071962;28;20083;-59
2021/07/03 16:18:57;;;;;;;7.88;4.18;;;;;;;;;;5072279;28;20656;-59
2021/07/03 16:21:24;;;;;;;4.80;3.80;;;;;;;;;;5077303;28;20042;-58
2021/07/03 16:23:51;;;;;;;7.97;4.00;;;;;;;;;;5077645;28;20033;-59
2021/07/03 16:26:18;;;;;;;5.40;3.67;;;;;;;;;;5091631;28;20048;-59
2021/07/03 16:28:45;;;;;;;5.57;4.15;;;;;;;;;;5095249;28;20052;-59
2021/07/03 16:31:12;;;;;;;4.13;3.70;;;;;;;;;;5093040;28;20067;-59
2021/07/03 16:33:38;;;;;;;5.53;4.10;;;;;;;;;;5096824;28;20063;-59
2021/07/03 16:36:05;;;;;;;7.68;3.85;;;;;;;;;;5094236;28;20120;-59
2021/07/03 16:38:32;;;;;;;6.70;4.00;;;;;;;;;;5096164;28;20040;-59
2021/07/03 16:41:06;;;;;;;6.22;4.18;;;;;;;;;;5080944;28;20113;-58
2021/07/03 16:43:37;;;;;;;6.03;4.38;;;;;;;;;;5077527;28;20071;-59
2021/07/03 18:30:35;;;;;;;4.47;3.92;;;;;;;;;;5043571;28;20502;-61
2021/07/03 18:33:02;;;;;;;;;;;;;;;;;;5041474;28;20083;-61
2021/07/03 18:35:29;;;;;;;5.65;3.85;;;;;;;;;;5037546;28;20019;-59
2021/07/03 18:37:55;;;;;;;6.05;4.38;;;;;;;;;;5040402;28;20064;-59
2021/07/03 19:30:37;;;;;;;6.05;4.80;;;;;;;;;;5079439;27;20852;-60
2021/07/03 19:33:04;;;;;;;5.50;5.00;;;;;;;;;;5081294;28;20052;-61
2021/07/03 19:35:31;;;;;;;5.57;4.93;;;;;;;;;;5079986;28;20072;-60
2021/07/03 19:37:58;;;;;;;6.18;4.70;;;;;;;;;;5078389;28;20045;-61
2021/07/03 19:40:26;;;;;;;7.50;4.90;;;;;;;;;;5076508;28;20044;-61
2021/07/03 19:42:52;;;;;;;5.43;4.70;;;;;;;;;;5079689;28;20119;-61
2021/07/03 19:45:19;;;;;;;7.55;4.78;;;;;;;;;;5080641;28;20063;-61
2021/07/03 20:31:36;;;;;;;7.40;5.72;;;;;;;;;;5108548;27;20479;-60
2021/07/03 22:22:33;;;;;;;7.43;6.60;;;;;;;;;;5082475;27;21500;-61
